Time;durP1;ratioP1;P1;durP2;ratioP2;P2;SDS_P1;SDS_P2;PMS_P1;PMS_P2;Temp;Humidity;BMP_temperature;BMP_pressure;BME280_temperature;BME280_humidity;BME280_pressure;Samples;Min_cycle;Max_cycle;Signal;HPM_P1;HPM_P2
2023/06/04 00:01:53;;;;;;;7.35;2.30;;;22.30;76.00;;;;;;5052411;28;20044;-60
2023/06/04 00:04:19;;;;;;;7.28;2.10;;;22.10;76.00;;;;;;5049953;28;20040;-66
2023/06/04 00:06:45;;;;;;;6.00;1.83;;;22.20;76.10;;;;;;5034585;28;20403;-62
2023/06/04 00:09:11;;;;;;;5.55;1.95;;;;;;;;;;5050344;28;20041;-64
2023/06/04 00:11:37;;;;;;;5.57;2.10;;;22.20;76.30;;;;;;5052507;28;20460;-62
2023/06/04 00:14:03;;;;;;;5.07;1.70;;;;;;;;;;5052435;28;20175;-64
2023/06/04 00:16:29;;;;;;;7.07;2.08;;;21.90;76.10;;;;;;5032730;28;20056;-60
2023/06/04 00:18:54;;;;;;;6.28;2.08;;;22.10;76.20;;;;;;5043681;28;20045;-61
2023/06/04 00:21:20;;;;;;;5.40;2.00;;;22.10;76.20;;;;;;5046908;28;20044;-67
2023/06/04 00:23:46;;;;;;;5.90;1.92;;;22.30;76.40;;;;;;5051235;28;20048;-66
2023/06/04 00:26:12;;;;;;;5.13;1.92;;;21.90;76.30;;;;;;5051299;28;20127;-63
2023/06/04 00:28:38;;;;;;;6.55;2.30;;;;;;;;;;5052214;28;20061;-66
2023/06/04 00:31:06;;;;;;;6.30;2.22;;;22.10;76.30;;;;;;5042945;28;20037;-63
2023/06/04 00:33:34;;;;;;;6.22;1.88;;;;;;;;;;5052327;28;20525;-61
2023/06/04 00:36:00;;;;;;;8.60;1.88;;;22.00;76.40;;;;;;5048108;28;20049;-60
2023/06/04 00:38:27;;;;;;;5.90;2.08;;;22.10;76.60;;;;;;5050907;28;20047;-70
2023/06/04 00:40:52;;;;;;;5.88;2.08;;;22.00;76.40;;;;;;5050965;28;20041;-60
2023/06/04 00:43:19;;;;;;;7.00;2.17;;;22.20;75.50;;;;;;5051963;28;20045;-61
2023/06/04 00:45:45;;;;;;;6.15;1.80;;;22.00;76.40;;;;;;5051516;28;20037;-65
2023/06/04 00:48:10;;;;;;;5.90;2.03;;;22.10;76.50;;;;;;5050169;28;20049;-69
2023/06/04 00:50:38;;;;;;;6.18;1.90;;;22.00;76.50;;;;;;5031123;28;20121;-66
2023/06/04 00:53:04;;;;;;;4.70;1.88;;;22.00;76.60;;;;;;5032154;28;20049;-68
2023/06/04 00:55:31;;;;;;;4.68;1.80;;;;;;;;;;5014864;28;20053;-60
2023/06/04 00:57:57;;;;;;;8.20;2.08;;;21.90;76.50;;;;;;5031278;28;20041;-64
2023/06/04 01:00:23;;;;;;;6.22;1.70;;;21.70;76.20;;;;;;5040114;28;20045;-60
2023/06/04 01:02:51;;;;;;;4.10;1.50;;;22.00;76.60;;;;;;5047182;28;20075;-64
2023/06/04 01:05:36;;;;;;;5.28;1.73;;;22.20;76.70;;;;;;5045524;28;20041;-64
2023/06/04 01:08:02;;;;;;;6.63;2.22;;;21.90;76.60;;;;;;5049501;28;20372;-63
2023/06/04 01:10:28;;;;;;;4.30;1.67;;;22.00;76.60;;;;;;5045073;28;20252;-65
2023/06/04 01:12:54;;;;;;;3.95;1.92;;;21.90;76.60;;;;;;5044833;28;20051;-63
2023/06/04 01:15:19;;;;;;;5.60;2.17;;;22.00;76.60;;;;;;5052143;28;20053;-63
2023/06/04 01:17:51;;;;;;;9.05;1.95;;;22.10;76.70;;;;;;5039014;28;20055;-66
2023/06/04 01:20:25;;;;;;;6.10;1.98;;;22.00;77.00;;;;;;5030553;28;20037;-61
2023/06/04 01:22:59;;;;;;;3.03;1.50;;;22.10;76.70;;;;;;5048224;28;20140;-70
2023/06/04 01:25:43;;;;;;;6.72;2.00;;;22.20;72.00;;;;;;5052066;28;20045;-66
2023/06/04 01:28:11;;;;;;;6.18;2.10;;;21.80;73.40;;;;;;5041547;28;20081;-63
2023/06/04 01:30:45;;;;;;;5.32;1.83;;;22.00;73.50;;;;;;5055617;28;20045;-63
2023/06/04 01:33:16;;;;;;;8.00;1.95;;;22.10;76.90;;;;;;5054083;28;20111;-67
2023/06/04 01:35:41;;;;;;;7.43;2.05;;;21.90;76.70;;;;;;5051724;28;20140;-61
2023/06/04 01:38:07;;;;;;;5.28;1.70;;;21.70;76.60;;;;;;5049736;28;20562;-62
2023/06/04 01:40:33;;;;;;;5.78;2.05;;;22.00;76.80;;;;;;5043303;28;20149;-66
2023/06/04 01:42:59;;;;;;;8.73;2.17;;;21.70;76.70;;;;;;5048667;28;20056;-62
2023/06/04 01:45:26;;;;;;;5.07;1.85;;;22.00;76.90;;;;;;5055330;28;20118;-61
2023/06/04 01:47:52;;;;;;;6.95;1.65;;;21.90;76.80;;;;;;5053158;28;20052;-60
2023/06/04 01:50:17;;;;;;;5.70;1.92;;;22.00;75.70;;;;;;5052240;28;20487;-66
2023/06/04 01:52:44;;;;;;;4.47;1.67;;;;;;;;;;5050885;28;20045;-68
2023/06/04 01:55:14;;;;;;;4.95;1.75;;;22.00;76.90;;;;;;5052186;28;20049;-65
2023/06/04 01:57:47;;;;;;;4.60;1.98;;;21.50;76.60;;;;;;5040958;28;20396;-60
2023/06/04 02:00:12;;;;;;;;;;;22.00;74.10;;;;;;5047861;28;20040;-65
2023/06/04 02:02:38;;;;;;;4.88;2.03;;;22.00;76.90;;;;;;5048987;28;19943;-60
2023/06/04 02:05:08;;;;;;;6.50;2.00;;;21.70;76.70;;;;;;5049976;28;20044;-63
2023/06/04 02:07:35;;;;;;;4.40;1.70;;;21.80;76.80;;;;;;5053155;28;20049;-60
2023/06/04 02:10:01;;;;;;;5.55;2.05;;;21.80;76.90;;;;;;5052449;28;20102;-66
2023/06/04 02:12:26;;;;;;;5.65;1.80;;;22.00;77.10;;;;;;5047327;28;20146;-67
2023/06/04 02:14:52;;;;;;;4.15;1.55;;;21.80;77.00;;;;;;5037097;28;20099;-66
2023/06/04 02:17:18;;;;;;;6.28;1.52;;;21.80;76.90;;;;;;5051996;28;20453;-65
2023/06/04 02:19:50;;;;;;;5.63;1.88;;;21.80;76.90;;;;;;5053464;28;20066;-61
2023/06/04 02:22:16;;;;;;;;;;;21.90;73.20;;;;;;5036353;28;20045;-64
2023/06/04 02:24:42;;;;;;;4.68;1.80;;;21.50;76.70;;;;;;5042730;28;19932;-62
2023/06/04 02:27:09;;;;;;;5.50;1.85;;;21.80;76.90;;;;;;5050355;28;20402;-60
2023/06/04 02:29:35;;;;;;;4.22;1.70;;;21.90;76.90;;;;;;5051407;28;20049;-61
2023/06/04 02:32:01;;;;;;;4.97;1.75;;;22.00;77.10;;;;;;5049183;28;20105;-63
2023/06/04 02:34:28;;;;;;;4.68;1.80;;;;;;;;;;5052555;28;20407;-64
2023/06/04 02:36:54;;;;;;;5.50;1.90;;;21.90;76.90;;;;;;5051625;28;20072;-59
2023/06/04 02:39:20;;;;;;;4.63;2.10;;;21.80;77.00;;;;;;5050321;28;20107;-61
2023/06/04 02:41:45;;;;;;;4.63;1.63;;;21.80;77.00;;;;;;5050348;28;20037;-61
2023/06/04 02:44:12;;;;;;;4.43;1.77;;;21.80;77.00;;;;;;5054269;28;20049;-62
2023/06/04 02:46:38;;;;;;;6.10;2.03;;;;;;;;;;5034071;28;20056;-63
2023/06/04 02:49:04;;;;;;;4.75;1.73;;;21.80;77.10;;;;;;5049302;28;20049;-61
2023/06/04 02:51:29;;;;;;;4.13;1.63;;;21.80;77.20;;;;;;5041139;28;20116;-63
2023/06/04 02:53:55;;;;;;;4.57;1.65;;;21.80;77.10;;;;;;5047341;28;20056;-63
2023/06/04 02:56:22;;;;;;;4.25;1.52;;;21.80;77.00;;;;;;5038834;28;20074;-62
2023/06/04 02:58:55;;;;;;;6.18;2.10;;;21.60;77.00;;;;;;5033695;28;20045;-64
2023/06/04 03:01:24;;;;;;;4.75;1.80;;;21.70;77.00;;;;;;5033654;28;20062;-67
2023/06/04 03:03:50;;;;;;;5.35;1.75;;;21.60;76.90;;;;;;5032703;28;20168;-62
2023/06/04 03:06:16;;;;;;;3.97;1.80;;;21.70;77.00;;;;;;5049818;28;20044;-66
2023/06/04 03:08:42;;;;;;;5.03;2.17;;;21.70;76.90;;;;;;5039682;28;20403;-67
2023/06/04 03:11:08;;;;;;;5.03;1.58;;;21.60;76.90;;;;;;5033529;28;20041;-65
2023/06/04 03:13:34;;;;;;;5.43;2.20;;;;;;;;;;5049039;28;20129;-67
2023/06/04 03:16:01;;;;;;;5.53;2.03;;;21.80;77.00;;;;;;5045208;28;20041;-68
2023/06/04 03:18:27;;;;;;;6.47;2.28;;;21.70;77.00;;;;;;5040393;28;20033;-67
2023/06/04 03:20:53;;;;;;;4.53;1.90;;;21.70;77.00;;;;;;5053462;28;20041;-64
2023/06/04 03:23:20;;;;;;;4.60;2.22;;;;;;;;;;5035027;28;20091;-69
2023/06/04 03:25:45;;;;;;;6.38;2.33;;;21.70;76.90;;;;;;5035102;28;20566;-66
2023/06/04 03:28:11;;;;;;;7.35;2.70;;;21.60;77.00;;;;;;5051763;28;20124;-59
2023/06/04 03:30:37;;;;;;;6.32;2.42;;;21.60;77.00;;;;;;5042839;28;20052;-64
2023/06/04 03:33:03;;;;;;;7.00;2.55;;;21.50;76.90;;;;;;5034246;28;20520;-63
2023/06/04 03:35:29;;;;;;;5.13;2.17;;;21.70;77.10;;;;;;5047242;28;20036;-69
2023/06/04 03:37:54;;;;;;;5.43;2.20;;;21.80;77.10;;;;;;5051958;28;20045;-61
2023/06/04 03:40:20;;;;;;;5.03;2.28;;;21.70;76.40;;;;;;5034490;28;20042;-62
2023/06/04 03:42:46;;;;;;;6.38;2.38;;;;;;;;;;5033939;28;20120;-60
2023/06/04 03:45:12;;;;;;;5.63;2.40;;;21.60;77.00;;;;;;5044187;28;20037;-61
2023/06/04 03:47:41;;;;;;;5.70;2.70;;;21.70;76.20;;;;;;5045059;28;20128;-60
2023/06/04 03:50:07;;;;;;;6.15;2.47;;;21.40;76.90;;;;;;5033107;28;20087;-60
2023/06/04 03:52:33;;;;;;;4.65;2.10;;;21.60;75.30;;;;;;5033307;28;20103;-61
2023/06/04 03:55:00;;;;;;;6.05;2.10;;;;;;;;;;5038572;28;20072;-62
2023/06/04 03:57:26;;;;;;;5.72;2.10;;;;;;;;;;5041168;28;20052;-63
2023/06/04 03:59:52;;;;;;;6.85;2.38;;;21.70;77.10;;;;;;5036849;28;20037;-61
2023/06/04 04:02:18;;;;;;;6.25;2.17;;;21.40;76.80;;;;;;5052570;28;20505;-65
2023/06/04 04:04:44;;;;;;;5.80;2.22;;;;;;;;;;5043375;28;20480;-61
2023/06/04 04:07:10;;;;;;;5.25;2.20;;;21.80;74.90;;;;;;5033031;28;20127;-61
2023/06/04 04:09:36;;;;;;;6.78;2.60;;;21.60;77.10;;;;;;5046824;28;20053;-66
2023/06/04 04:12:03;;;;;;;5.68;2.40;;;21.80;77.20;;;;;;5042610;28;20041;-71
2023/06/04 04:14:29;;;;;;;7.18;2.40;;;21.90;77.30;;;;;;5036195;28;20076;-61
2023/06/04 04:16:55;;;;;;;5.57;2.15;;;21.80;77.20;;;;;;5035199;28;20077;-61
2023/06/04 04:19:20;;;;;;;5.78;2.17;;;22.00;77.30;;;;;;5043904;28;20483;-71
2023/06/04 04:21:48;;;;;;;4.03;2.00;;;21.90;77.20;;;;;;5038921;28;20619;-63
2023/06/04 04:24:24;;;;;;;6.25;2.38;;;21.70;77.10;;;;;;5048590;28;20419;-61
2023/06/04 04:26:53;;;;;;;4.90;2.50;;;21.90;77.20;;;;;;5048980;28;20041;-60
2023/06/04 04:29:24;;;;;;;5.43;2.30;;;22.00;77.30;;;;;;5036896;28;20576;-66
2023/06/04 04:31:56;;;;;;;5.57;2.25;;;21.90;74.10;;;;;;5036922;28;20060;-69
2023/06/04 04:34:22;;;;;;;7.18;2.35;;;21.70;77.20;;;;;;5040117;28;20127;-62
2023/06/04 04:36:54;;;;;;;7.90;2.38;;;21.90;77.40;;;;;;5047429;28;20099;-67
2023/06/04 04:39:24;;;;;;;5.55;1.95;;;22.00;77.30;;;;;;5041197;28;20069;-68
2023/06/04 04:41:50;;;;;;;5.57;2.17;;;21.70;77.20;;;;;;5041716;28;20083;-66
2023/06/04 04:44:15;;;;;;;5.40;2.05;;;21.70;77.20;;;;;;5042131;28;20041;-62
2023/06/04 04:46:41;;;;;;;4.93;1.98;;;22.10;77.40;;;;;;5050251;28;20052;-67
2023/06/04 04:49:07;;;;;;;6.85;2.30;;;;;;;;;;5035843;28;20144;-68
2023/06/04 04:51:33;;;;;;;4.95;2.00;;;22.20;75.20;;;;;;5045918;28;20107;-67
2023/06/04 04:54:02;;;;;;;6.45;2.20;;;22.20;77.40;;;;;;5051381;28;20041;-66
2023/06/04 04:56:28;;;;;;;5.20;1.90;;;;;;;;;;5046618;28;20048;-65
2023/06/04 04:58:57;;;;;;;4.68;2.10;;;22.10;76.40;;;;;;5041259;28;20091;-66
2023/06/04 05:01:25;;;;;;;6.13;2.40;;;22.60;77.00;;;;;;5047653;28;20055;-65
2023/06/04 05:03:51;;;;;;;5.88;2.08;;;22.40;76.70;;;;;;5044957;28;20077;-60
2023/06/04 05:06:17;;;;;;;5.30;1.60;;;22.50;76.40;;;;;;5043407;28;20080;-65
2023/06/04 05:08:42;;;;;;;5.20;2.08;;;23.00;76.40;;;;;;5045985;28;20084;-61
2023/06/04 05:11:09;;;;;;;3.97;1.67;;;;;;;;;;5043606;28;20562;-68
2023/06/04 05:13:36;;;;;;;5.03;1.95;;;23.30;75.80;;;;;;5047967;28;20490;-63
2023/06/04 05:16:06;;;;;;;5.72;2.08;;;23.30;75.80;;;;;;5045370;28;20036;-62
2023/06/04 05:18:40;;;;;;;4.18;1.80;;;23.60;75.40;;;;;;5054641;28;20511;-60
2023/06/04 05:21:06;;;;;;;3.30;1.58;;;23.40;72.80;;;;;;5050383;28;20124;-66
2023/06/04 05:23:34;;;;;;;5.75;2.13;;;23.90;75.20;;;;;;5054845;28;20053;-65
2023/06/04 05:26:01;;;;;;;4.57;1.80;;;24.00;75.10;;;;;;5035317;28;20049;-67
2023/06/04 05:28:27;;;;;;;5.03;1.85;;;24.00;72.20;;;;;;5045402;28;20057;-61
2023/06/04 05:30:58;;;;;;;4.15;1.80;;;23.90;74.60;;;;;;5037007;28;20050;-69
2023/06/04 05:33:27;;;;;;;4.28;1.73;;;24.00;74.90;;;;;;5041983;28;20103;-63
2023/06/04 05:35:57;;;;;;;3.80;1.90;;;24.00;74.30;;;;;;5042252;28;20102;-66
2023/06/04 05:38:26;;;;;;;5.50;1.70;;;24.10;70.70;;;;;;5041257;28;20038;-65
2023/06/04 05:40:58;;;;;;;3.47;1.80;;;24.40;74.20;;;;;;5043025;28;20056;-63
2023/06/04 05:43:23;;;;;;;4.43;1.80;;;24.50;71.70;;;;;;5046188;28;20048;-63
2023/06/04 05:45:55;;;;;;;6.43;2.05;;;24.40;71.30;;;;;;5046353;28;20037;-68
2023/06/04 05:48:21;;;;;;;4.10;1.92;;;24.60;72.40;;;;;;5048401;28;20364;-64
2023/06/04 05:50:47;;;;;;;4.38;1.73;;;24.80;71.10;;;;;;5049403;28;20112;-63
2023/06/04 05:53:13;;;;;;;3.92;1.80;;;24.80;71.00;;;;;;5044875;28;20096;-68
2023/06/04 05:55:38;;;;;;;8.10;2.00;;;24.80;71.00;;;;;;5041830;28;20479;-61
2023/06/04 05:58:04;;;;;;;5.82;1.80;;;24.80;70.80;;;;;;5034970;28;20040;-62
2023/06/04 06:00:30;;;;;;;5.18;1.70;;;24.70;70.70;;;;;;5051021;28;20438;-66
2023/06/04 06:02:56;;;;;;;3.40;1.80;;;24.90;73.60;;;;;;5043179;28;20044;-68
2023/06/04 06:05:22;;;;;;;4.25;1.73;;;25.00;70.60;;;;;;5045455;28;20045;-67
2023/06/04 06:07:48;;;;;;;6.55;1.80;;;25.00;70.70;;;;;;5048982;28;20438;-65
2023/06/04 06:10:15;;;;;;;7.13;2.05;;;24.90;70.50;;;;;;5035067;28;20099;-59
2023/06/04 06:12:41;;;;;;;4.55;1.80;;;24.90;70.50;;;;;;5035483;28;20045;-63
2023/06/04 06:15:07;;;;;;;4.03;1.60;;;25.20;70.50;;;;;;5047627;28;20123;-67
2023/06/04 06:17:33;;;;;;;4.38;1.80;;;25.40;70.40;;;;;;5045666;28;20118;-66
2023/06/04 06:19:59;;;;;;;4.10;1.70;;;25.20;70.60;;;;;;5042424;28;20496;-60
2023/06/04 06:26:13;;;;;;;5.32;1.80;;;25.30;69.50;;;;;;5041637;28;20099;-65
2023/06/04 06:28:39;;;;;;;3.80;1.83;;;25.40;70.50;;;;;;5038310;28;20076;-68
2023/06/04 06:31:05;;;;;;;3.42;1.63;;;25.20;73.40;;;;;;5036203;28;20103;-65
2023/06/04 06:33:31;;;;;;;3.67;1.70;;;25.10;70.30;;;;;;5039068;28;21000;-67
2023/06/04 06:35:59;;;;;;;4.45;1.60;;;25.30;70.20;;;;;;5040139;28;20047;-66
2023/06/04 06:38:26;;;;;;;4.60;1.80;;;25.40;70.50;;;;;;5041088;28;20574;-64
2023/06/04 06:40:52;;;;;;;4.57;1.77;;;25.50;70.70;;;;;;5049882;28;20118;-67
2023/06/04 06:43:18;;;;;;;4.10;1.90;;;25.50;70.30;;;;;;5050679;28;20056;-65
2023/06/04 06:45:44;;;;;;;4.32;1.55;;;25.50;69.90;;;;;;5043721;28;20036;-61
2023/06/04 06:48:10;;;;;;;4.40;1.52;;;25.50;70.10;;;;;;5035378;28;20088;-61
2023/06/04 06:50:36;;;;;;;5.18;1.67;;;25.60;70.20;;;;;;5047094;28;20435;-60
2023/06/04 06:53:02;;;;;;;6.93;2.05;;;25.50;70.10;;;;;;5052770;28;20037;-60
2023/06/04 06:55:28;;;;;;;5.47;1.70;;;25.50;73.20;;;;;;5041799;28;20052;-62
2023/06/04 06:57:54;;;;;;;5.75;2.08;;;25.60;70.10;;;;;;5045611;28;20037;-63
2023/06/04 07:00:20;;;;;;;7.13;2.25;;;25.60;70.10;;;;;;5040000;28;20043;-67
2023/06/04 07:02:46;;;;;;;6.53;2.10;;;25.50;69.90;;;;;;5038447;28;20048;-65
2023/06/04 07:05:13;;;;;;;6.50;2.50;;;25.80;70.20;;;;;;5047608;28;20123;-60
2023/06/04 07:07:39;;;;;;;7.57;2.42;;;25.80;70.30;;;;;;5041272;28;20184;-61
2023/06/04 07:10:05;;;;;;;6.53;1.90;;;25.60;70.10;;;;;;5039191;28;20040;-69
2023/06/04 07:12:31;;;;;;;6.78;2.13;;;25.20;69.30;;;;;;5035621;28;20049;-67
2023/06/04 07:14:57;;;;;;;6.78;2.17;;;25.90;70.00;;;;;;5049914;28;20124;-61
2023/06/04 07:17:23;;;;;;;9.65;2.38;;;25.70;69.90;;;;;;5044390;28;20106;-63
2023/06/04 07:19:48;;;;;;;5.57;2.40;;;25.80;70.00;;;;;;5036551;28;20099;-63
2023/06/04 07:22:17;;;;;;;6.40;2.20;;;25.70;70.00;;;;;;5045535;28;20037;-67
2023/06/04 07:24:43;;;;;;;6.65;2.42;;;25.80;69.00;;;;;;5034014;28;20129;-62
2023/06/04 07:27:12;;;;;;;5.30;1.85;;;25.80;69.90;;;;;;5033345;28;20148;-61
2023/06/04 07:29:38;;;;;;;8.55;2.78;;;25.80;70.40;;;;;;5040713;28;20049;-61
2023/06/04 07:32:05;;;;;;;7.38;2.05;;;26.00;69.70;;;;;;5036470;28;20985;-64
2023/06/04 07:34:31;;;;;;;5.28;2.17;;;26.00;70.20;;;;;;5033050;28;20037;-60
2023/06/04 07:36:56;;;;;;;5.68;2.35;;;25.90;70.10;;;;;;5045872;28;20037;-67
2023/06/04 07:39:23;;;;;;;7.38;2.60;;;26.00;69.90;;;;;;5039165;28;20461;-61
2023/06/04 07:41:49;;;;;;;6.03;2.10;;;26.00;70.00;;;;;;5043111;28;20057;-61
2023/06/04 07:44:15;;;;;;;7.25;2.65;;;25.80;69.70;;;;;;5051734;28;20120;-60
2023/06/04 07:46:41;;;;;;;5.15;2.20;;;25.90;69.70;;;;;;5051821;28;20106;-62
2023/06/04 07:49:06;;;;;;;8.50;2.58;;;26.00;70.00;;;;;;5041516;28;20041;-62
2023/06/04 07:51:32;;;;;;;7.75;2.40;;;26.00;69.80;;;;;;5038206;28;20045;-60
2023/06/04 07:53:58;;;;;;;4.90;2.28;;;26.20;70.00;;;;;;5049343;28;20453;-71
2023/06/04 07:56:24;;;;;;;6.07;2.20;;;26.20;70.60;;;;;;5051077;28;20045;-74
2023/06/04 07:58:49;;;;;;;6.40;2.40;;;26.10;69.90;;;;;;5040636;28;20041;-62
2023/06/04 08:01:15;;;;;;;10.25;2.88;;;26.00;69.80;;;;;;5048794;28;20037;-63
2023/06/04 08:03:41;;;;;;;11.15;2.60;;;26.40;70.10;;;;;;5039281;28;20561;-64
2023/06/04 08:06:07;;;;;;;7.53;2.50;;;26.20;69.80;;;;;;5050421;28;20041;-61
2023/06/04 08:08:36;;;;;;;6.22;2.40;;;26.00;69.70;;;;;;5041237;28;20053;-60
2023/06/04 08:11:02;;;;;;;7.57;2.95;;;26.30;69.90;;;;;;5042449;28;20043;-62
2023/06/04 08:13:30;;;;;;;8.65;2.85;;;26.40;70.20;;;;;;5003592;28;20049;-64
2023/06/04 08:15:56;;;;;;;10.63;2.40;;;26.10;69.80;;;;;;5051755;28;20040;-73
2023/06/04 08:18:22;;;;;;;6.05;2.40;;;26.50;70.00;;;;;;5045236;28;20435;-63
2023/06/04 08:20:48;;;;;;;7.45;2.30;;;26.30;69.70;;;;;;5040328;28;20037;-63
2023/06/04 08:23:14;;;;;;;5.45;2.20;;;26.40;69.80;;;;;;5031833;28;20063;-61
2023/06/04 08:25:39;;;;;;;6.85;2.45;;;26.40;69.70;;;;;;5040574;28;20095;-62
2023/06/04 08:28:05;;;;;;;5.90;2.20;;;26.40;69.90;;;;;;5043300;28;20080;-61
2023/06/04 08:30:35;;;;;;;6.20;2.70;;;26.40;69.70;;;;;;5044736;28;20041;-61
2023/06/04 08:33:01;;;;;;;7.20;2.75;;;26.50;69.80;;;;;;5042017;28;20044;-61
2023/06/04 08:35:27;;;;;;;7.97;3.00;;;26.40;69.70;;;;;;5044990;28;20048;-61
2023/06/04 08:37:53;;;;;;;6.50;2.45;;;26.10;72.80;;;;;;5042827;28;20499;-69
2023/06/04 08:40:19;;;;;;;5.65;2.67;;;26.60;69.70;;;;;;5046242;28;20111;-66
2023/06/04 08:42:45;;;;;;;9.00;3.65;;;26.40;69.80;;;;;;5046992;28;20441;-62
2023/06/04 08:45:12;;;;;;;9.25;3.25;;;26.40;69.70;;;;;;5041815;28;20403;-60
2023/06/04 08:47:44;;;;;;;7.22;3.05;;;26.30;70.00;;;;;;5045929;28;20501;-69
2023/06/04 08:50:10;;;;;;;8.30;2.50;;;26.30;68.50;;;;;;5047321;28;20124;-61
2023/06/04 08:52:37;;;;;;;10.68;3.45;;;26.30;70.00;;;;;;5055151;28;20112;-61
2023/06/04 08:55:03;;;;;;;8.55;3.08;;;26.50;69.90;;;;;;5053834;28;20121;-61
2023/06/04 08:57:31;;;;;;;11.43;3.15;;;26.30;69.30;;;;;;5036020;28;20076;-63
2023/06/04 08:59:56;;;;;;;8.55;2.92;;;26.20;69.60;;;;;;5050095;28;20045;-61
2023/06/04 09:02:22;;;;;;;6.93;2.90;;;26.40;69.90;;;;;;5054439;28;20106;-62
2023/06/04 09:04:48;;;;;;;5.25;2.38;;;26.30;69.70;;;;;;5052948;28;20136;-61
2023/06/04 09:07:14;;;;;;;7.50;2.70;;;26.10;69.60;;;;;;5054678;28;20044;-66
2023/06/04 09:09:40;;;;;;;7.65;2.67;;;26.10;69.60;;;;;;5052052;28;20494;-61
2023/06/04 09:12:11;;;;;;;7.88;2.95;;;26.20;69.60;;;;;;5053242;28;20490;-61
2023/06/04 09:14:36;;;;;;;7.55;2.75;;;26.20;69.80;;;;;;5053094;28;20056;-64
2023/06/04 09:17:02;;;;;;;9.25;3.08;;;26.40;69.70;;;;;;5054267;28;20099;-61
2023/06/04 09:19:28;;;;;;;6.70;2.88;;;25.90;69.20;;;;;;5050741;28;20037;-60
2023/06/04 09:21:58;;;;;;;6.07;2.38;;;26.20;69.50;;;;;;5049512;28;20207;-72
2023/06/04 09:24:25;;;;;;;8.68;2.58;;;26.20;69.90;;;;;;5038322;28;20047;-68
2023/06/04 09:26:51;;;;;;;6.93;2.70;;;26.10;69.80;;;;;;5039427;28;20049;-70
2023/06/04 09:29:17;;;;;;;8.93;2.50;;;26.20;69.50;;;;;;5054573;28;20114;-69
2023/06/04 09:31:47;;;;;;;6.70;2.55;;;26.30;70.20;;;;;;5052369;28;20110;-70
2023/06/04 09:34:13;;;;;;;7.65;2.30;;;26.10;70.00;;;;;;5054610;28;20051;-70
2023/06/04 09:36:39;;;;;;;7.22;2.40;;;26.30;69.50;;;;;;5047136;28;20119;-72
2023/06/04 09:39:17;;;;;;;7.05;2.55;;;26.10;68.90;;;;;;5048481;28;20456;-69
2023/06/04 09:41:43;;;;;;;12.23;2.40;;;26.00;67.70;;;;;;5035028;28;20049;-71
2023/06/04 09:44:10;;;;;;;7.07;2.53;;;26.00;68.70;;;;;;5052495;28;20036;-68
2023/06/04 09:46:36;;;;;;;6.07;2.30;;;26.10;68.80;;;;;;5053450;28;20095;-68
2023/06/04 09:49:04;;;;;;;9.00;2.63;;;26.00;69.30;;;;;;5054089;28;20510;-71
2023/06/04 09:51:30;;;;;;;6.55;2.55;;;26.00;68.90;;;;;;5054081;28;20115;-72
2023/06/04 09:53:57;;;;;;;7.93;2.47;;;25.80;71.80;;;;;;5049284;28;20132;-67
2023/06/04 09:56:23;;;;;;;4.68;2.35;;;26.20;69.10;;;;;;5046219;28;20083;-71
2023/06/04 09:58:50;;;;;;;6.88;2.40;;;26.00;68.80;;;;;;5048187;28;20437;-70
2023/06/04 10:01:15;;;;;;;7.03;2.70;;;25.80;68.60;;;;;;5045211;28;20218;-70
2023/06/04 10:03:44;;;;;;;6.70;2.30;;;25.80;68.00;;;;;;5050569;28;20128;-71
2023/06/04 10:06:09;;;;;;;6.05;2.47;;;25.80;68.90;;;;;;5017151;28;20045;-71
2023/06/04 10:08:35;;;;;;;7.47;2.45;;;26.00;68.90;;;;;;5038135;28;20060;-65
2023/06/04 10:11:02;;;;;;;7.50;2.60;;;25.80;69.20;;;;;;5044628;28;20049;-64
2023/06/04 10:13:52;;;;;;;5.45;2.10;;;25.70;69.00;;;;;;5033642;28;20103;-65
2023/06/04 10:16:17;;;;;;;7.38;3.03;;;25.60;69.10;;;;;;5029724;28;20049;-72
2023/06/04 10:18:44;;;;;;;5.63;1.90;;;25.80;68.90;;;;;;5046061;28;20044;-69
2023/06/04 10:21:10;;;;;;;5.72;2.53;;;25.70;69.10;;;;;;5034762;28;20041;-61
2023/06/04 10:23:35;;;;;;;5.60;2.10;;;25.60;68.60;;;;;;5036816;28;20041;-63
2023/06/04 10:26:01;;;;;;;7.13;2.63;;;25.50;68.60;;;;;;5051932;28;20045;-64
2023/06/04 10:28:28;;;;;;;5.18;2.03;;;25.40;68.50;;;;;;5047341;28;20128;-66
2023/06/04 10:30:53;;;;;;;5.32;2.05;;;25.40;68.60;;;;;;5047383;28;20402;-63
2023/06/04 10:33:20;;;;;;;7.15;2.42;;;25.70;68.70;;;;;;5053458;28;20049;-75
2023/06/04 10:35:46;;;;;;;5.47;2.20;;;25.40;68.50;;;;;;5033110;28;20111;-61
2023/06/04 10:38:14;;;;;;;5.20;2.20;;;25.60;68.30;;;;;;5045088;28;20437;-63
2023/06/04 10:40:39;;;;;;;4.22;2.05;;;25.50;68.50;;;;;;5042406;28;20037;-72
2023/06/04 10:43:06;;;;;;;6.57;2.25;;;25.40;68.40;;;;;;5052072;28;20037;-70
2023/06/04 10:45:32;;;;;;;6.85;2.25;;;25.30;68.70;;;;;;5050705;28;20115;-69
2023/06/04 10:48:04;;;;;;;5.95;2.28;;;25.50;68.70;;;;;;5036786;28;20049;-70
2023/06/04 10:50:32;;;;;;;6.70;1.90;;;25.40;69.20;;;;;;5049949;28;20037;-65
2023/06/04 10:52:58;;;;;;;7.57;2.25;;;25.40;69.00;;;;;;5054027;28;20064;-67
2023/06/04 10:55:24;;;;;;;5.07;2.15;;;25.50;69.00;;;;;;5054073;28;20037;-73
2023/06/04 10:58:00;;;;;;;6.25;2.13;;;25.40;68.80;;;;;;5039642;28;20513;-61
2023/06/04 11:00:39;;;;;;;4.93;2.03;;;25.40;69.40;;;;;;5036582;28;20053;-69
2023/06/04 11:03:08;;;;;;;4.07;1.77;;;25.50;69.40;;;;;;5039040;28;20183;-67
2023/06/04 11:05:38;;;;;;;5.25;1.92;;;25.40;69.00;;;;;;5033969;28;20123;-69
2023/06/04 11:08:05;;;;;;;3.92;1.95;;;25.40;69.30;;;;;;5033448;28;20056;-62
2023/06/04 11:10:36;;;;;;;5.45;1.98;;;25.20;69.00;;;;;;5034131;28;20051;-66
2023/06/04 11:13:03;;;;;;;4.90;1.92;;;25.40;69.50;;;;;;5048008;28;20072;-68
2023/06/04 11:15:42;;;;;;;4.60;1.85;;;25.40;69.40;;;;;;5044287;28;20398;-67
2023/06/04 11:18:08;;;;;;;4.25;1.90;;;25.40;70.10;;;;;;5045015;28;20128;-62
2023/06/04 11:20:34;;;;;;;5.43;2.00;;;25.10;69.10;;;;;;5033748;28;20160;-61
2023/06/04 11:23:02;;;;;;;5.80;2.15;;;25.50;69.10;;;;;;5044417;28;20045;-65
2023/06/04 11:25:30;;;;;;;4.53;2.08;;;25.40;69.20;;;;;;5053489;28;20489;-72
2023/06/04 11:27:56;;;;;;;4.30;1.88;;;25.30;69.00;;;;;;5041422;28;20414;-61
2023/06/04 11:30:22;;;;;;;6.55;2.17;;;25.20;69.10;;;;;;5044337;28;20060;-65
2023/06/04 11:32:48;;;;;;;7.43;2.10;;;25.30;69.20;;;;;;5037346;28;20045;-64
2023/06/04 11:35:14;;;;;;;4.45;1.90;;;25.20;69.20;;;;;;5042074;28;20191;-70
2023/06/04 11:37:40;;;;;;;10.50;2.08;;;25.40;69.60;;;;;;5037223;28;20041;-67
2023/06/04 11:40:18;;;;;;;5.22;1.90;;;25.20;69.40;;;;;;5040873;28;20392;-66
2023/06/04 11:42:45;;;;;;;5.82;1.95;;;25.20;69.80;;;;;;5033356;28;20045;-68
2023/06/04 11:45:13;;;;;;;4.95;2.00;;;25.30;69.70;;;;;;5050967;28;20060;-69
2023/06/04 11:47:39;;;;;;;8.27;2.20;;;25.40;69.80;;;;;;5053085;28;20067;-70
2023/06/04 11:50:06;;;;;;;4.38;1.80;;;25.40;69.40;;;;;;5039200;28;20120;-70
2023/06/04 11:52:33;;;;;;;5.10;1.95;;;25.50;69.10;;;;;;5040429;28;20061;-69
2023/06/04 11:54:58;;;;;;;5.65;1.90;;;25.30;69.70;;;;;;5032656;28;20046;-69
2023/06/04 11:57:24;;;;;;;3.35;1.60;;;25.70;69.70;;;;;;5033095;28;20051;-70
2023/06/04 11:59:50;;;;;;;4.88;1.92;;;25.40;73.20;;;;;;5031811;28;20502;-68
2023/06/04 12:02:16;;;;;;;6.50;2.20;;;25.60;69.70;;;;;;5032999;28;20049;-69
2023/06/04 12:04:41;;;;;;;5.43;2.05;;;25.40;69.60;;;;;;5047880;28;20170;-69
2023/06/04 12:07:08;;;;;;;6.05;2.15;;;25.50;69.70;;;;;;5052048;28;20052;-69
2023/06/04 12:09:35;;;;;;;4.20;1.77;;;25.50;69.80;;;;;;5039695;28;20103;-69
2023/06/04 12:12:02;;;;;;;4.40;1.88;;;25.40;69.80;;;;;;5033390;28;20088;-69
2023/06/04 12:14:28;;;;;;;4.13;1.70;;;25.60;70.00;;;;;;5050646;28;20099;-70
2023/06/04 12:16:58;;;;;;;4.60;1.75;;;25.40;69.50;;;;;;5052655;28;20437;-69
2023/06/04 12:19:24;;;;;;;5.22;2.20;;;25.70;70.00;;;;;;5051228;28;20041;-69
2023/06/04 12:22:06;;;;;;;3.75;1.88;;;25.50;69.50;;;;;;5051491;28;20106;-69
2023/06/04 12:24:45;;;;;;;4.13;1.77;;;25.50;68.50;;;;;;5035794;28;20053;-70
2023/06/04 12:27:11;;;;;;;5.72;1.90;;;25.80;70.30;;;;;;5035108;28;20392;-67
2023/06/04 12:29:37;;;;;;;4.05;2.05;;;25.70;69.50;;;;;;5032357;28;20065;-60
2023/06/04 12:32:07;;;;;;;5.13;2.05;;;25.60;69.20;;;;;;5038489;28;20120;-60
2023/06/04 12:34:36;;;;;;;5.07;1.77;;;25.60;70.00;;;;;;5050700;28;20383;-69
2023/06/04 12:37:06;;;;;;;3.92;1.95;;;25.50;68.20;;;;;;5032889;28;20060;-70
2023/06/04 12:39:33;;;;;;;4.75;2.20;;;25.50;68.60;;;;;;5042144;28;20414;-70
2023/06/04 12:41:59;;;;;;;4.22;1.90;;;25.60;69.70;;;;;;5051780;28;20075;-71
2023/06/04 12:44:25;;;;;;;3.75;1.63;;;25.80;69.80;;;;;;5045505;28;20048;-71
2023/06/04 12:46:51;;;;;;;4.07;1.92;;;25.80;70.40;;;;;;5050745;28;20091;-71
2023/06/04 12:49:16;;;;;;;3.22;1.77;;;25.50;69.60;;;;;;5052418;28;20498;-70
2023/06/04 12:51:42;;;;;;;5.10;2.00;;;25.70;73.20;;;;;;5052087;28;20051;-69
2023/06/04 12:54:08;;;;;;;4.10;1.75;;;25.40;69.60;;;;;;5051304;28;20136;-69
2023/06/04 12:56:35;;;;;;;3.40;1.50;;;25.60;70.00;;;;;;5050006;28;20060;-71